PWSweather.com
Personal Weather Stations
Station Observations
AKOUDA4022
Sousse, AkoudaTN 4022

SousseAkoudaTN 4022

Lat: 35.881801, Lon: 10.566187

Elevation: 200

Station Type: TFA Nexus

http://www.soussewetter.de/meteo/

Latest ConditionsUpdated 2:20:00 PM GMT+01:01 Tuesday, Jul 23, 2019
Currently Today's Max Today's Min Today's Average
Temperature 91.9°F33.3°C 93.9°F34.4°C 76.5°F24.7°C 85.2°F29.6°C
Dew Point 59.5°F15.3°C 68.3°F20.2°C 56.9°F13.8°C 64.2°F17.9°C
Winds 3.0 mph NNE4.8 kmh NNE 3.4 mph -5.5 kmh - - 1.4 mph 2.3 kmh
Wind Gusts 2.9 mph4.7 kmh 9.5 mph15.3 kmh - -
Humidity 34% 74% 30% 53%
Pressure 30.03 in1016.9 mb 30.09 in1019.0 mb 30.03 in1016.9 mb -
Hour Temp Dew Point Humidity Winds Wind Gusts Pressure Precip Precip Rate Daily Precip Total
02:20 PM 91.9°F33.3°C 59.5°F15.3°C 34% 3.0 mph NNE4.8 kmh NNE 2.9 mph4.7 kmh 30.03 in1016.9 mb 0.00 in0.0 mm 0.00 in0.0 mm 0.00 in0.0 mm
02:10 PM 91.6°F33.1°C 58.3°F14.6°C 33% 3.4 mph ESE5.5 kmh ESE 3.7 mph6.0 kmh 30.03 in1016.9 mb 0.00 in0.0 mm 0.00 in0.0 mm 0.00 in0.0 mm
02:00 PM 91.8°F33.2°C 58.5°F14.7°C 33% 3.0 mph SE4.8 kmh SE 2.4 mph3.9 kmh 30.03 in1016.9 mb 0.00 in0.0 mm 0.00 in0.0 mm 0.00 in0.0 mm
12:20 PM 93.0°F33.9°C 56.9°F13.8°C 30% 2.4 mph W3.9 kmh W 4.7 mph7.6 kmh 30.04 in1017.3 mb 0.00 in0.0 mm 0.00 in0.0 mm 0.00 in0.0 mm
12:10 PM 93.0°F33.9°C 58.7°F14.8°C 32% 2.4 mph NE3.9 kmh NE 4.2 mph6.8 kmh 30.04 in1017.3 mb 0.00 in0.0 mm 0.00 in0.0 mm 0.00 in0.0 mm
12:00 PM 93.2°F34.0°C 58.9°F14.9°C 32% 2.2 mph SE3.5 kmh SE 3.5 mph5.6 kmh 30.04 in1017.3 mb 0.00 in0.0 mm 0.00 in0.0 mm 0.00 in0.0 mm
10:20 AM 93.9°F34.4°C 60.4°F15.8°C 33% 3.4 mph ESE5.5 kmh ESE 9.5 mph15.3 kmh 30.03 in1016.9 mb 0.00 in0.0 mm 0.00 in0.0 mm 0.00 in0.0 mm
10:10 AM 93.0°F33.9°C 59.6°F15.3°C 33% 2.2 mph N3.5 kmh N 5.3 mph8.5 kmh 30.03 in1016.9 mb 0.00 in0.0 mm 0.00 in0.0 mm 0.00 in0.0 mm
10:00 AM 93.4°F34.1°C 60.7°F15.9°C 34% 2.5 mph ENE4.0 kmh ENE -- 30.03 in1016.9 mb 0.00 in0.0 mm 0.00 in0.0 mm 0.00 in0.0 mm
08:20 AM 90.3°F32.4°C 65.4°F18.6°C 44% 2.0 mph NW3.2 kmh NW -- 30.05 in1017.6 mb 0.00 in0.0 mm 0.00 in0.0 mm 0.00 in0.0 mm
08:10 AM 90.1°F32.3°C 67.1°F19.5°C 47% 1.5 mph ENE2.4 kmh ENE 7.8 mph12.6 kmh 30.05 in1017.6 mb 0.00 in0.0 mm 0.00 in0.0 mm 0.00 in0.0 mm
08:00 AM 89.4°F31.9°C 67.1°F19.5°C 48% 1.5 mph NW2.4 kmh NW 3.7 mph6.0 kmh 30.05 in1017.6 mb 0.00 in0.0 mm 0.00 in0.0 mm 0.00 in0.0 mm
06:20 AM 80.6°F27.0°C 66.8°F19.3°C 63% 1.1 mph NNW1.8 kmh NNW 2.5 mph4.0 kmh 30.05 in1017.6 mb 0.00 in0.0 mm 0.00 in0.0 mm 0.00 in0.0 mm
06:10 AM 78.8°F26.0°C 66.5°F19.2°C 66% 0.9 mph WSW1.4 kmh WSW -- 30.04 in1017.3 mb 0.00 in0.0 mm 0.00 in0.0 mm 0.00 in0.0 mm
06:00 AM 78.4°F25.8°C 67.0°F19.4°C 68% 1.1 mph W1.8 kmh W 1.7 mph2.7 kmh 30.04 in1017.3 mb 0.00 in0.0 mm 0.00 in0.0 mm 0.00 in0.0 mm
04:20 AM 76.5°F24.7°C 67.1°F19.5°C 73% 0.6 mph NW1.0 kmh NW 1.7 mph2.7 kmh 30.05 in1017.6 mb 0.00 in0.0 mm 0.00 in0.0 mm 0.00 in0.0 mm
04:10 AM 76.6°F24.8°C 67.7°F19.8°C 74% 0.2 mph WSW0.3 kmh WSW -- 30.03 in1016.9 mb 0.00 in0.0 mm 0.00 in0.0 mm 0.00 in0.0 mm
04:00 AM 76.8°F24.9°C 67.9°F19.9°C 74% 0.1 mph W0.2 kmh W 1.5 mph2.4 kmh 30.03 in1016.9 mb 0.00 in0.0 mm 0.00 in0.0 mm 0.00 in0.0 mm
02:20 AM 77.9°F25.5°C 68.1°F20.1°C 72% Calm Calm -- 30.04 in1017.3 mb 0.00 in0.0 mm 0.00 in0.0 mm 0.00 in0.0 mm
02:10 AM 78.1°F25.6°C 68.3°F20.2°C 72% Calm Calm -- 30.04 in1017.3 mb 0.00 in0.0 mm 0.00 in0.0 mm 0.00 in0.0 mm
02:00 AM 78.1°F25.6°C 67.9°F19.9°C 71% Calm Calm -- 30.04 in1017.3 mb 0.00 in0.0 mm 0.00 in0.0 mm 0.00 in0.0 mm
12:20 AM 79.0°F26.1°C 67.5°F19.7°C 68% 0.4 mph NNE0.6 kmh NNE 1.9 mph3.1 kmh 30.08 in1018.6 mb 0.00 in0.0 mm 0.00 in0.0 mm 0.00 in0.0 mm
12:10 AM 79.3°F26.3°C 67.8°F19.9°C 68% 0.1 mph NNE0.2 kmh NNE -- 30.09 in1019.0 mb 0.00 in0.0 mm 0.00 in0.0 mm 0.00 in0.0 mm
12:00 AM 79.3°F26.3°C 67.8°F19.9°C 68% 0.2 mph NNE0.3 kmh NNE -- 30.09 in1019.0 mb 0.00 in0.0 mm 0.00 in0.0 mm 0.00 in0.0 mm